sensor_id;sensor_type;location;lat;lon;timestamp;temperature;humidity
25640;DHT22;13497;48.322;16.204;2023-04-24T00:00:07;14.30;99.90
25640;DHT22;13497;48.322;16.204;2023-04-24T00:02:37;14.20;99.90
25640;DHT22;13497;48.322;16.204;2023-04-24T00:05:06;14.00;99.90
25640;DHT22;13497;48.322;16.204;2023-04-24T00:07:33;13.80;99.90
25640;DHT22;13497;48.322;16.204;2023-04-24T00:09:59;13.80;99.90
25640;DHT22;13497;48.322;16.204;2023-04-24T00:12:24;13.70;99.90
25640;DHT22;13497;48.322;16.204;2023-04-24T00:14:50;13.70;99.90
25640;DHT22;13497;48.322;16.204;2023-04-24T00:17:16;13.60;99.90
25640;DHT22;13497;48.322;16.204;2023-04-24T00:19:45;13.60;99.90
25640;DHT22;13497;48.322;16.204;2023-04-24T00:22:11;13.60;99.90
25640;DHT22;13497;48.322;16.204;2023-04-24T00:24:38;13.60;99.90
25640;DHT22;13497;48.322;16.204;2023-04-24T00:27:04;13.60;99.90
25640;DHT22;13497;48.322;16.204;2023-04-24T00:29:29;13.50;99.90
25640;DHT22;13497;48.322;16.204;2023-04-24T00:31:55;13.40;99.90
25640;DHT22;13497;48.322;16.204;2023-04-24T00:34:21;13.30;99.90
25640;DHT22;13497;48.322;16.204;2023-04-24T00:36:46;13.20;99.90
25640;DHT22;13497;48.322;16.204;2023-04-24T00:39:12;13.10;99.90
25640;DHT22;13497;48.322;16.204;2023-04-24T00:41:37;13.00;99.90
25640;DHT22;13497;48.322;16.204;2023-04-24T00:44:02;13.00;99.90
25640;DHT22;13497;48.322;16.204;2023-04-24T00:46:28;12.80;99.90
25640;DHT22;13497;48.322;16.204;2023-04-24T00:48:54;12.60;99.90
25640;DHT22;13497;48.322;16.204;2023-04-24T00:51:21;12.50;99.90
25640;DHT22;13497;48.322;16.204;2023-04-24T00:53:46;12.40;99.90
25640;DHT22;13497;48.322;16.204;2023-04-24T00:56:12;12.40;99.90
25640;DHT22;13497;48.322;16.204;2023-04-24T00:58:38;12.30;99.90
25640;DHT22;13497;48.322;16.204;2023-04-24T01:01:03;12.30;99.90
25640;DHT22;13497;48.322;16.204;2023-04-24T01:03:32;12.20;99.90
25640;DHT22;13497;48.322;16.204;2023-04-24T01:05:58;12.20;99.90
25640;DHT22;13497;48.322;16.204;2023-04-24T01:08:24;12.20;99.90
25640;DHT22;13497;48.322;16.204;2023-04-24T01:10:53;12.00;99.90
25640;DHT22;13497;48.322;16.204;2023-04-24T01:13:19;12.00;99.90
25640;DHT22;13497;48.322;16.204;2023-04-24T01:15:45;12.00;99.90
25640;DHT22;13497;48.322;16.204;2023-04-24T01:18:11;12.00;99.90
25640;DHT22;13497;48.322;16.204;2023-04-24T01:20:37;12.00;99.90
25640;DHT22;13497;48.322;16.204;2023-04-24T01:23:05;12.00;99.90
25640;DHT22;13497;48.322;16.204;2023-04-24T01:25:31;11.90;99.90
25640;DHT22;13497;48.322;16.204;2023-04-24T01:27:57;11.80;99.90
25640;DHT22;13497;48.322;16.204;2023-04-24T01:30:22;11.70;99.90
25640;DHT22;13497;48.322;16.204;2023-04-24T01:32:48;11.70;99.90
25640;DHT22;13497;48.322;16.204;2023-04-24T01:35:13;11.60;99.90
25640;DHT22;13497;48.322;16.204;2023-04-24T01:37:39;11.60;99.90
25640;DHT22;13497;48.322;16.204;2023-04-24T01:40:05;11.60;99.90
25640;DHT22;13497;48.322;16.204;2023-04-24T01:42:32;11.60;99.90
25640;DHT22;13497;48.322;16.204;2023-04-24T01:44:57;11.60;99.90
25640;DHT22;13497;48.322;16.204;2023-04-24T01:47:23;11.60;99.90
25640;DHT22;13497;48.322;16.204;2023-04-24T01:49:49;11.60;99.90
25640;DHT22;13497;48.322;16.204;2023-04-24T01:52:15;11.50;99.90
25640;DHT22;13497;48.322;16.204;2023-04-24T01:54:41;11.60;99.90
25640;DHT22;13497;48.322;16.204;2023-04-24T01:57:07;11.60;99.90
25640;DHT22;13497;48.322;16.204;2023-04-24T01:59:33;11.60;99.90
25640;DHT22;13497;48.322;16.204;2023-04-24T02:01:58;11.60;99.90
25640;DHT22;13497;48.322;16.204;2023-04-24T02:04:24;11.70;99.90
25640;DHT22;13497;48.322;16.204;2023-04-24T02:06:49;11.70;99.90
25640;DHT22;13497;48.322;16.204;2023-04-24T02:09:15;11.70;99.90
25640;DHT22;13497;48.322;16.204;2023-04-24T02:11:40;11.70;99.90
25640;DHT22;13497;48.322;16.204;2023-04-24T02:14:06;11.60;99.90
25640;DHT22;13497;48.322;16.204;2023-04-24T02:16:31;11.60;99.90
25640;DHT22;13497;48.322;16.204;2023-04-24T02:18:58;11.60;99.90
25640;DHT22;13497;48.322;16.204;2023-04-24T02:21:23;11.60;99.90
25640;DHT22;13497;48.322;16.204;2023-04-24T02:23:49;11.40;99.90
25640;DHT22;13497;48.322;16.204;2023-04-24T02:26:15;11.30;99.90
25640;DHT22;13497;48.322;16.204;2023-04-24T02:28:40;11.30;99.90
25640;DHT22;13497;48.322;16.204;2023-04-24T02:31:06;11.30;99.90
25640;DHT22;13497;48.322;16.204;2023-04-24T02:33:31;11.40;99.90
25640;DHT22;13497;48.322;16.204;2023-04-24T02:35:57;11.60;99.90
25640;DHT22;13497;48.322;16.204;2023-04-24T02:38:22;11.70;99.90
25640;DHT22;13497;48.322;16.204;2023-04-24T02:40:48;11.80;99.90
25640;DHT22;13497;48.322;16.204;2023-04-24T02:43:13;11.80;99.90
25640;DHT22;13497;48.322;16.204;2023-04-24T02:45:39;11.70;99.90
25640;DHT22;13497;48.322;16.204;2023-04-24T02:48:05;11.70;99.90
25640;DHT22;13497;48.322;16.204;2023-04-24T02:50:31;11.70;99.90
25640;DHT22;13497;48.322;16.204;2023-04-24T02:52:57;11.70;99.90
25640;DHT22;13497;48.322;16.204;2023-04-24T02:55:23;11.70;99.90
25640;DHT22;13497;48.322;16.204;2023-04-24T02:57:48;11.80;99.90
25640;DHT22;13497;48.322;16.204;2023-04-24T03:00:14;11.80;99.90
25640;DHT22;13497;48.322;16.204;2023-04-24T03:02:39;11.80;99.90
25640;DHT22;13497;48.322;16.204;2023-04-24T03:05:05;11.80;99.90
25640;DHT22;13497;48.322;16.204;2023-04-24T03:07:30;11.80;99.90
25640;DHT22;13497;48.322;16.204;2023-04-24T03:09:57;11.80;99.90
25640;DHT22;13497;48.322;16.204;2023-04-24T03:12:23;11.70;99.90
25640;DHT22;13497;48.322;16.204;2023-04-24T03:14:49;11.70;99.90
25640;DHT22;13497;48.322;16.204;2023-04-24T03:17:14;11.80;99.90
25640;DHT22;13497;48.322;16.204;2023-04-24T03:19:40;11.70;99.90
25640;DHT22;13497;48.322;16.204;2023-04-24T03:22:05;11.70;99.90
25640;DHT22;13497;48.322;16.204;2023-04-24T03:24:31;11.60;99.90
25640;DHT22;13497;48.322;16.204;2023-04-24T03:26:57;11.60;99.90
25640;DHT22;13497;48.322;16.204;2023-04-24T03:29:22;11.50;99.90
25640;DHT22;13497;48.322;16.204;2023-04-24T03:31:48;11.50;99.90
25640;DHT22;13497;48.322;16.204;2023-04-24T03:34:13;11.50;99.90
25640;DHT22;13497;48.322;16.204;2023-04-24T03:36:39;11.50;99.90
25640;DHT22;13497;48.322;16.204;2023-04-24T03:39:05;11.30;99.90
25640;DHT22;13497;48.322;16.204;2023-04-24T03:41:32;11.40;99.90
25640;DHT22;13497;48.322;16.204;2023-04-24T03:43:57;11.30;99.90
25640;DHT22;13497;48.322;16.204;2023-04-24T03:46:23;11.40;99.90
25640;DHT22;13497;48.322;16.204;2023-04-24T03:48:49;11.30;99.90
25640;DHT22;13497;48.322;16.204;2023-04-24T03:51:14;11.30;99.90
25640;DHT22;13497;48.322;16.204;2023-04-24T03:53:40;11.30;99.90
25640;DHT22;13497;48.322;16.204;2023-04-24T03:56:05;11.30;99.90
25640;DHT22;13497;48.322;16.204;2023-04-24T03:58:31;11.30;99.90
25640;DHT22;13497;48.322;16.204;2023-04-24T04:00:57;11.40;99.90
25640;DHT22;13497;48.322;16.204;2023-04-24T04:03:23;11.50;99.90
25640;DHT22;13497;48.322;16.204;2023-04-24T04:05:49;11.50;99.90
25640;DHT22;13497;48.322;16.204;2023-04-24T04:08:14;11.60;99.90
25640;DHT22;13497;48.322;16.204;2023-04-24T04:10:40;11.70;99.90
25640;DHT22;13497;48.322;16.204;2023-04-24T04:13:05;11.80;99.90
25640;DHT22;13497;48.322;16.204;2023-04-24T04:15:31;11.90;99.90
25640;DHT22;13497;48.322;16.204;2023-04-24T04:17:57;12.00;99.90
25640;DHT22;13497;48.322;16.204;2023-04-24T04:20:22;12.10;99.90
25640;DHT22;13497;48.322;16.204;2023-04-24T04:22:48;12.10;99.90
25640;DHT22;13497;48.322;16.204;2023-04-24T04:25:13;12.20;99.90
25640;DHT22;13497;48.322;16.204;2023-04-24T04:27:42;12.30;99.90
25640;DHT22;13497;48.322;16.204;2023-04-24T04:30:08;12.40;99.90
25640;DHT22;13497;48.322;16.204;2023-04-24T04:32:34;12.40;99.90
25640;DHT22;13497;48.322;16.204;2023-04-24T04:35:03;12.60;99.90
25640;DHT22;13497;48.322;16.204;2023-04-24T04:37:29;13.00;99.90
25640;DHT22;13497;48.322;16.204;2023-04-24T04:39:54;13.50;99.90
25640;DHT22;13497;48.322;16.204;2023-04-24T04:42:20;14.00;99.90
25640;DHT22;13497;48.322;16.204;2023-04-24T04:44:45;14.30;99.90
25640;DHT22;13497;48.322;16.204;2023-04-24T04:47:11;14.50;99.90
25640;DHT22;13497;48.322;16.204;2023-04-24T04:49:40;14.50;99.90
25640;DHT22;13497;48.322;16.204;2023-04-24T04:52:06;14.40;99.90
25640;DHT22;13497;48.322;16.204;2023-04-24T04:54:32;14.40;99.90
25640;DHT22;13497;48.322;16.204;2023-04-24T04:56:57;14.30;99.90
25640;DHT22;13497;48.322;16.204;2023-04-24T04:59:23;14.30;99.90
25640;DHT22;13497;48.322;16.204;2023-04-24T05:01:48;14.30;99.90
25640;DHT22;13497;48.322;16.204;2023-04-24T05:04:14;14.20;99.90
25640;DHT22;13497;48.322;16.204;2023-04-24T05:06:39;14.10;99.90
25640;DHT22;13497;48.322;16.204;2023-04-24T05:09:05;14.00;99.90
25640;DHT22;13497;48.322;16.204;2023-04-24T05:11:30;14.30;99.90
25640;DHT22;13497;48.322;16.204;2023-04-24T05:13:56;14.60;99.90
25640;DHT22;13497;48.322;16.204;2023-04-24T05:16:22;14.80;99.90
25640;DHT22;13497;48.322;16.204;2023-04-24T05:18:47;15.00;99.90
25640;DHT22;13497;48.322;16.204;2023-04-24T05:21:14;15.10;99.90
25640;DHT22;13497;48.322;16.204;2023-04-24T05:23:40;15.00;99.90
25640;DHT22;13497;48.322;16.204;2023-04-24T05:26:05;15.20;99.90
25640;DHT22;13497;48.322;16.204;2023-04-24T05:28:31;15.00;99.90
25640;DHT22;13497;48.322;16.204;2023-04-24T05:30:56;15.00;99.90
25640;DHT22;13497;48.322;16.204;2023-04-24T05:33:22;15.30;99.90
25640;DHT22;13497;48.322;16.204;2023-04-24T05:35:48;15.90;99.90
25640;DHT22;13497;48.322;16.204;2023-04-24T05:38:13;16.40;99.90
25640;DHT22;13497;48.322;16.204;2023-04-24T05:40:42;16.70;99.90
25640;DHT22;13497;48.322;16.204;2023-04-24T05:43:08;16.70;99.90
25640;DHT22;13497;48.322;16.204;2023-04-24T05:45:33;16.40;99.90
25640;DHT22;13497;48.322;16.204;2023-04-24T05:48:01;15.90;99.90
25640;DHT22;13497;48.322;16.204;2023-04-24T05:50:27;15.40;99.90
25640;DHT22;13497;48.322;16.204;2023-04-24T05:52:53;15.10;99.90
25640;DHT22;13497;48.322;16.204;2023-04-24T05:55:18;14.80;99.90
25640;DHT22;13497;48.322;16.204;2023-04-24T05:57:44;14.50;99.90
25640;DHT22;13497;48.322;16.204;2023-04-24T06:00:10;14.30;99.90
25640;DHT22;13497;48.322;16.204;2023-04-24T06:02:37;14.30;99.90
25640;DHT22;13497;48.322;16.204;2023-04-24T06:05:03;14.20;99.90
25640;DHT22;13497;48.322;16.204;2023-04-24T06:07:30;14.20;99.90
25640;DHT22;13497;48.322;16.204;2023-04-24T06:09:56;14.20;99.90
25640;DHT22;13497;48.322;16.204;2023-04-24T06:12:22;14.30;99.90
25640;DHT22;13497;48.322;16.204;2023-04-24T06:14:47;14.30;99.90
25640;DHT22;13497;48.322;16.204;2023-04-24T06:17:13;14.40;99.90
25640;DHT22;13497;48.322;16.204;2023-04-24T06:19:39;14.60;99.90
25640;DHT22;13497;48.322;16.204;2023-04-24T06:22:04;14.70;99.90
25640;DHT22;13497;48.322;16.204;2023-04-24T06:24:30;14.90;99.90
25640;DHT22;13497;48.322;16.204;2023-04-24T06:26:55;15.00;99.90
25640;DHT22;13497;48.322;16.204;2023-04-24T06:29:22;15.00;99.90
25640;DHT22;13497;48.322;16.204;2023-04-24T06:31:48;15.10;99.90
25640;DHT22;13497;48.322;16.204;2023-04-24T06:34:13;15.20;99.90
25640;DHT22;13497;48.322;16.204;2023-04-24T06:36:39;15.10;99.90
25640;DHT22;13497;48.322;16.204;2023-04-24T06:39:04;15.10;99.90
25640;DHT22;13497;48.322;16.204;2023-04-24T06:41:30;15.30;99.90
25640;DHT22;13497;48.322;16.204;2023-04-24T06:43:55;15.50;99.90
25640;DHT22;13497;48.322;16.204;2023-04-24T06:46:21;15.60;99.90
25640;DHT22;13497;48.322;16.204;2023-04-24T06:48:54;15.40;99.90
25640;DHT22;13497;48.322;16.204;2023-04-24T06:51:23;15.30;99.90
25640;DHT22;13497;48.322;16.204;2023-04-24T06:53:48;15.10;99.90
25640;DHT22;13497;48.322;16.204;2023-04-24T06:56:15;15.10;99.90
25640;DHT22;13497;48.322;16.204;2023-04-24T06:58:41;15.00;99.90
25640;DHT22;13497;48.322;16.204;2023-04-24T07:01:07;14.90;99.90
25640;DHT22;13497;48.322;16.204;2023-04-24T07:03:32;14.90;99.90
25640;DHT22;13497;48.322;16.204;2023-04-24T07:05:58;15.00;99.90
25640;DHT22;13497;48.322;16.204;2023-04-24T07:08:24;15.10;99.90
25640;DHT22;13497;48.322;16.204;2023-04-24T07:10:50;15.20;99.90
25640;DHT22;13497;48.322;16.204;2023-04-24T07:13:16;15.10;99.90
25640;DHT22;13497;48.322;16.204;2023-04-24T07:15:42;15.20;99.90
25640;DHT22;13497;48.322;16.204;2023-04-24T07:18:08;15.30;99.90
25640;DHT22;13497;48.322;16.204;2023-04-24T07:20:33;15.30;99.90
25640;DHT22;13497;48.322;16.204;2023-04-24T07:22:59;15.10;99.90
25640;DHT22;13497;48.322;16.204;2023-04-24T07:25:25;15.00;99.90
25640;DHT22;13497;48.322;16.204;2023-04-24T07:27:50;15.10;99.90
25640;DHT22;13497;48.322;16.204;2023-04-24T07:30:16;15.40;99.90
25640;DHT22;13497;48.322;16.204;2023-04-24T07:32:41;15.60;99.90
25640;DHT22;13497;48.322;16.204;2023-04-24T07:35:07;15.60;99.90
25640;DHT22;13497;48.322;16.204;2023-04-24T07:37:34;15.50;99.90
25640;DHT22;13497;48.322;16.204;2023-04-24T07:40:00;15.50;99.90
25640;DHT22;13497;48.322;16.204;2023-04-24T07:42:27;15.30;99.90
25640;DHT22;13497;48.322;16.204;2023-04-24T07:44:55;15.40;99.90
25640;DHT22;13497;48.322;16.204;2023-04-24T07:47:21;15.40;99.90
25640;DHT22;13497;48.322;16.204;2023-04-24T07:49:47;15.40;99.90
25640;DHT22;13497;48.322;16.204;2023-04-24T07:52:13;15.60;99.90
25640;DHT22;13497;48.322;16.204;2023-04-24T07:54:38;15.70;99.90
25640;DHT22;13497;48.322;16.204;2023-04-24T07:57:04;15.80;99.90
25640;DHT22;13497;48.322;16.204;2023-04-24T07:59:31;15.70;99.90
25640;DHT22;13497;48.322;16.204;2023-04-24T08:01:57;15.80;99.90
25640;DHT22;13497;48.322;16.204;2023-04-24T08:04:23;15.70;99.90
25640;DHT22;13497;48.322;16.204;2023-04-24T08:06:48;15.70;99.90
25640;DHT22;13497;48.322;16.204;2023-04-24T08:09:14;15.60;99.90
25640;DHT22;13497;48.322;16.204;2023-04-24T08:11:39;15.30;99.90
25640;DHT22;13497;48.322;16.204;2023-04-24T08:14:05;15.10;99.90
25640;DHT22;13497;48.322;16.204;2023-04-24T08:16:31;15.20;99.90
25640;DHT22;13497;48.322;16.204;2023-04-24T08:18:57;15.10;99.90
25640;DHT22;13497;48.322;16.204;2023-04-24T08:21:22;15.00;99.90
25640;DHT22;13497;48.322;16.204;2023-04-24T08:23:48;14.90;99.90
25640;DHT22;13497;48.322;16.204;2023-04-24T08:26:14;14.90;99.90
25640;DHT22;13497;48.322;16.204;2023-04-24T08:28:39;14.70;99.90
25640;DHT22;13497;48.322;16.204;2023-04-24T08:31:05;14.70;99.90
25640;DHT22;13497;48.322;16.204;2023-04-24T08:33:30;14.70;99.90
25640;DHT22;13497;48.322;16.204;2023-04-24T08:36:06;14.70;99.90
25640;DHT22;13497;48.322;16.204;2023-04-24T08:38:31;15.00;99.90
25640;DHT22;13497;48.322;16.204;2023-04-24T08:40:58;14.80;99.90
25640;DHT22;13497;48.322;16.204;2023-04-24T08:43:23;14.70;99.90
25640;DHT22;13497;48.322;16.204;2023-04-24T08:45:50;14.70;99.90
25640;DHT22;13497;48.322;16.204;2023-04-24T08:48:16;14.70;99.90
25640;DHT22;13497;48.322;16.204;2023-04-24T08:50:42;14.50;99.90
25640;DHT22;13497;48.322;16.204;2023-04-24T08:53:08;14.30;99.90
25640;DHT22;13497;48.322;16.204;2023-04-24T08:55:34;14.20;99.90
25640;DHT22;13497;48.322;16.204;2023-04-24T08:58:01;14.10;99.90
25640;DHT22;13497;48.322;16.204;2023-04-24T09:00:27;14.00;99.90
25640;DHT22;13497;48.322;16.204;2023-04-24T09:02:53;13.90;99.90
25640;DHT22;13497;48.322;16.204;2023-04-24T09:05:19;13.80;99.90
25640;DHT22;13497;48.322;16.204;2023-04-24T09:07:48;13.70;99.90
25640;DHT22;13497;48.322;16.204;2023-04-24T09:10:14;13.60;99.90
25640;DHT22;13497;48.322;16.204;2023-04-24T09:12:41;13.60;99.90
25640;DHT22;13497;48.322;16.204;2023-04-24T09:15:06;13.50;99.90
25640;DHT22;13497;48.322;16.204;2023-04-24T09:17:33;13.40;99.90
25640;DHT22;13497;48.322;16.204;2023-04-24T09:19:58;13.40;99.90
25640;DHT22;13497;48.322;16.204;2023-04-24T09:22:24;13.40;99.90
25640;DHT22;13497;48.322;16.204;2023-04-24T09:24:59;13.40;99.90
25640;DHT22;13497;48.322;16.204;2023-04-24T09:27:24;13.40;99.90
25640;DHT22;13497;48.322;16.204;2023-04-24T09:29:54;13.30;99.90
25640;DHT22;13497;48.322;16.204;2023-04-24T09:32:21;13.30;99.90
25640;DHT22;13497;48.322;16.204;2023-04-24T09:34:47;13.30;99.90
25640;DHT22;13497;48.322;16.204;2023-04-24T09:37:26;13.20;99.90
25640;DHT22;13497;48.322;16.204;2023-04-24T09:40:11;13.20;99.90
25640;DHT22;13497;48.322;16.204;2023-04-24T09:42:37;13.20;99.90
25640;DHT22;13497;48.322;16.204;2023-04-24T09:45:03;13.10;99.90
25640;DHT22;13497;48.322;16.204;2023-04-24T09:47:35;13.10;99.90
25640;DHT22;13497;48.322;16.204;2023-04-24T09:50:01;13.10;99.90
25640;DHT22;13497;48.322;16.204;2023-04-24T09:52:34;13.20;99.90
25640;DHT22;13497;48.322;16.204;2023-04-24T09:54:59;13.10;99.90
25640;DHT22;13497;48.322;16.204;2023-04-24T09:57:25;13.10;99.90
25640;DHT22;13497;48.322;16.204;2023-04-24T09:59:51;13.10;99.90
25640;DHT22;13497;48.322;16.204;2023-04-24T10:02:21;13.10;99.90
25640;DHT22;13497;48.322;16.204;2023-04-24T10:04:56;13.00;99.90
25640;DHT22;13497;48.322;16.204;2023-04-24T10:07:21;13.10;99.90
25640;DHT22;13497;48.322;16.204;2023-04-24T10:09:47;13.20;99.90
25640;DHT22;13497;48.322;16.204;2023-04-24T10:12:13;13.20;99.90
25640;DHT22;13497;48.322;16.204;2023-04-24T10:14:40;13.20;99.90
25640;DHT22;13497;48.322;16.204;2023-04-24T10:17:05;13.20;99.90
25640;DHT22;13497;48.322;16.204;2023-04-24T10:19:31;13.20;99.90
25640;DHT22;13497;48.322;16.204;2023-04-24T10:21:57;13.20;99.90
25640;DHT22;13497;48.322;16.204;2023-04-24T10:24:23;13.30;99.90
25640;DHT22;13497;48.322;16.204;2023-04-24T10:26:49;13.30;99.90
25640;DHT22;13497;48.322;16.204;2023-04-24T10:29:16;13.40;99.90
25640;DHT22;13497;48.322;16.204;2023-04-24T10:31:42;13.40;99.90
25640;DHT22;13497;48.322;16.204;2023-04-24T10:34:10;13.40;99.90
25640;DHT22;13497;48.322;16.204;2023-04-24T10:36:38;13.30;99.90
25640;DHT22;13497;48.322;16.204;2023-04-24T10:39:06;13.30;99.90
25640;DHT22;13497;48.322;16.204;2023-04-24T10:41:33;13.40;99.90
25640;DHT22;13497;48.322;16.204;2023-04-24T10:46:35;13.50;99.90
25640;DHT22;13497;48.322;16.204;2023-04-24T10:49:03;13.60;99.90
25640;DHT22;13497;48.322;16.204;2023-04-24T10:51:50;13.70;99.90
25640;DHT22;13497;48.322;16.204;2023-04-24T10:54:21;13.70;99.90
25640;DHT22;13497;48.322;16.204;2023-04-24T10:56:47;13.80;99.90
25640;DHT22;13497;48.322;16.204;2023-04-24T10:59:13;13.60;99.90
25640;DHT22;13497;48.322;16.204;2023-04-24T11:01:52;13.50;99.90
25640;DHT22;13497;48.322;16.204;2023-04-24T11:04:21;13.40;99.90
25640;DHT22;13497;48.322;16.204;2023-04-24T11:06:53;13.40;99.90
25640;DHT22;13497;48.322;16.204;2023-04-24T11:09:19;13.40;99.90
25640;DHT22;13497;48.322;16.204;2023-04-24T11:11:47;13.30;99.90
25640;DHT22;13497;48.322;16.204;2023-04-24T11:14:15;13.20;99.90
25640;DHT22;13497;48.322;16.204;2023-04-24T11:16:42;13.10;99.90
25640;DHT22;13497;48.322;16.204;2023-04-24T11:24:50;13.20;99.90
25640;DHT22;13497;48.322;16.204;2023-04-24T11:26:57;13.40;99.90
25640;DHT22;13497;48.322;16.204;2023-04-24T11:29:38;13.50;99.90
25640;DHT22;13497;48.322;16.204;2023-04-24T11:34:48;13.70;99.90
25640;DHT22;13497;48.322;16.204;2023-04-24T11:37:14;13.60;99.90
25640;DHT22;13497;48.322;16.204;2023-04-24T11:39:40;13.70;99.90
25640;DHT22;13497;48.322;16.204;2023-04-24T11:42:06;13.60;99.90
25640;DHT22;13497;48.322;16.204;2023-04-24T11:44:36;13.50;99.90
25640;DHT22;13497;48.322;16.204;2023-04-24T11:47:04;13.60;99.90
25640;DHT22;13497;48.322;16.204;2023-04-24T11:49:29;13.80;99.90
25640;DHT22;13497;48.322;16.204;2023-04-24T11:51:55;14.00;99.90
25640;DHT22;13497;48.322;16.204;2023-04-24T11:54:21;14.10;99.90
25640;DHT22;13497;48.322;16.204;2023-04-24T11:56:47;14.20;99.90
25640;DHT22;13497;48.322;16.204;2023-04-24T11:59:12;14.20;99.90
25640;DHT22;13497;48.322;16.204;2023-04-24T12:01:44;14.30;99.90
25640;DHT22;13497;48.322;16.204;2023-04-24T12:04:11;14.60;99.90
25640;DHT22;13497;48.322;16.204;2023-04-24T12:06:36;14.70;99.90
25640;DHT22;13497;48.322;16.204;2023-04-24T12:09:02;14.90;99.90
25640;DHT22;13497;48.322;16.204;2023-04-24T12:11:28;15.00;99.90
25640;DHT22;13497;48.322;16.204;2023-04-24T12:13:53;15.10;99.90
25640;DHT22;13497;48.322;16.204;2023-04-24T12:16:19;15.30;99.90
25640;DHT22;13497;48.322;16.204;2023-04-24T12:18:44;15.40;99.90
25640;DHT22;13497;48.322;16.204;2023-04-24T12:21:20;15.50;99.90
25640;DHT22;13497;48.322;16.204;2023-04-24T12:23:46;15.70;99.90
25640;DHT22;13497;48.322;16.204;2023-04-24T12:26:20;15.90;99.90
25640;DHT22;13497;48.322;16.204;2023-04-24T12:28:48;16.00;99.90
25640;DHT22;13497;48.322;16.204;2023-04-24T12:31:16;16.30;99.90
25640;DHT22;13497;48.322;16.204;2023-04-24T12:33:42;16.80;99.90
25640;DHT22;13497;48.322;16.204;2023-04-24T12:36:11;17.10;99.90
25640;DHT22;13497;48.322;16.204;2023-04-24T12:38:37;17.20;99.90
25640;DHT22;13497;48.322;16.204;2023-04-24T12:41:09;17.30;99.90
25640;DHT22;13497;48.322;16.204;2023-04-24T12:43:35;17.40;99.90
25640;DHT22;13497;48.322;16.204;2023-04-24T12:46:01;17.70;99.90
25640;DHT22;13497;48.322;16.204;2023-04-24T12:48:27;17.80;99.90
25640;DHT22;13497;48.322;16.204;2023-04-24T12:50:52;17.80;99.90
25640;DHT22;13497;48.322;16.204;2023-04-24T12:53:18;17.60;99.90
25640;DHT22;13497;48.322;16.204;2023-04-24T12:55:44;17.60;99.90
25640;DHT22;13497;48.322;16.204;2023-04-24T12:58:10;17.50;99.90
25640;DHT22;13497;48.322;16.204;2023-04-24T13:00:35;17.30;99.90
25640;DHT22;13497;48.322;16.204;2023-04-24T13:03:02;17.00;99.90
25640;DHT22;13497;48.322;16.204;2023-04-24T13:05:27;16.70;99.90
25640;DHT22;13497;48.322;16.204;2023-04-24T13:07:53;16.40;99.90
25640;DHT22;13497;48.322;16.204;2023-04-24T13:10:19;16.20;99.90
25640;DHT22;13497;48.322;16.204;2023-04-24T13:12:44;16.40;99.90
25640;DHT22;13497;48.322;16.204;2023-04-24T13:15:11;16.50;99.90
25640;DHT22;13497;48.322;16.204;2023-04-24T13:17:37;16.60;99.90
25640;DHT22;13497;48.322;16.204;2023-04-24T13:20:02;16.70;99.90
25640;DHT22;13497;48.322;16.204;2023-04-24T13:22:28;16.60;99.90
25640;DHT22;13497;48.322;16.204;2023-04-24T13:24:53;16.40;99.90
25640;DHT22;13497;48.322;16.204;2023-04-24T13:27:19;16.30;99.90
25640;DHT22;13497;48.322;16.204;2023-04-24T13:29:45;16.10;99.90
25640;DHT22;13497;48.322;16.204;2023-04-24T13:32:11;15.90;99.90
25640;DHT22;13497;48.322;16.204;2023-04-24T13:34:37;15.80;99.90
25640;DHT22;13497;48.322;16.204;2023-04-24T13:37:03;15.60;99.90
25640;DHT22;13497;48.322;16.204;2023-04-24T13:39:33;15.30;99.90
25640;DHT22;13497;48.322;16.204;2023-04-24T13:41:58;14.90;99.90
25640;DHT22;13497;48.322;16.204;2023-04-24T13:44:24;14.80;99.90
25640;DHT22;13497;48.322;16.204;2023-04-24T13:46:50;14.70;99.90
25640;DHT22;13497;48.322;16.204;2023-04-24T13:49:17;14.70;99.90
25640;DHT22;13497;48.322;16.204;2023-04-24T13:51:42;14.60;99.90
25640;DHT22;13497;48.322;16.204;2023-04-24T13:54:08;14.70;99.90
25640;DHT22;13497;48.322;16.204;2023-04-24T13:56:33;14.90;99.90
25640;DHT22;13497;48.322;16.204;2023-04-24T13:59:00;14.90;99.90
25640;DHT22;13497;48.322;16.204;2023-04-24T14:01:26;15.10;99.90
25640;DHT22;13497;48.322;16.204;2023-04-24T14:03:52;15.10;99.90
25640;DHT22;13497;48.322;16.204;2023-04-24T14:06:18;15.20;99.90
25640;DHT22;13497;48.322;16.204;2023-04-24T14:08:44;15.20;99.90
25640;DHT22;13497;48.322;16.204;2023-04-24T14:11:09;15.20;99.90
25640;DHT22;13497;48.322;16.204;2023-04-24T14:13:35;15.20;99.90
25640;DHT22;13497;48.322;16.204;2023-04-24T14:16:01;15.20;99.90
25640;DHT22;13497;48.322;16.204;2023-04-24T14:18:27;15.20;99.90
25640;DHT22;13497;48.322;16.204;2023-04-24T14:20:52;15.20;99.90
25640;DHT22;13497;48.322;16.204;2023-04-24T14:23:18;15.30;99.90
25640;DHT22;13497;48.322;16.204;2023-04-24T14:25:43;15.20;99.90
25640;DHT22;13497;48.322;16.204;2023-04-24T14:28:09;14.80;99.90
25640;DHT22;13497;48.322;16.204;2023-04-24T14:30:34;14.50;99.90
25640;DHT22;13497;48.322;16.204;2023-04-24T14:33:02;14.30;99.90
25640;DHT22;13497;48.322;16.204;2023-04-24T14:35:29;14.20;99.90
25640;DHT22;13497;48.322;16.204;2023-04-24T14:37:56;14.20;99.90
25640;DHT22;13497;48.322;16.204;2023-04-24T14:40:22;14.30;99.90
25640;DHT22;13497;48.322;16.204;2023-04-24T14:42:47;14.30;99.90
25640;DHT22;13497;48.322;16.204;2023-04-24T14:45:13;14.30;99.90
25640;DHT22;13497;48.322;16.204;2023-04-24T14:47:38;14.30;99.90
25640;DHT22;13497;48.322;16.204;2023-04-24T14:50:04;14.30;99.90
25640;DHT22;13497;48.322;16.204;2023-04-24T14:52:31;14.30;99.90
25640;DHT22;13497;48.322;16.204;2023-04-24T14:54:56;14.30;99.90
25640;DHT22;13497;48.322;16.204;2023-04-24T14:57:22;14.30;99.90
25640;DHT22;13497;48.322;16.204;2023-04-24T14:59:47;14.40;99.90
25640;DHT22;13497;48.322;16.204;2023-04-24T15:02:13;14.40;99.90
25640;DHT22;13497;48.322;16.204;2023-04-24T15:04:38;14.60;99.90
25640;DHT22;13497;48.322;16.204;2023-04-24T15:07:04;14.60;99.90
25640;DHT22;13497;48.322;16.204;2023-04-24T15:09:30;14.60;99.90
25640;DHT22;13497;48.322;16.204;2023-04-24T15:11:57;14.60;99.90
25640;DHT22;13497;48.322;16.204;2023-04-24T15:14:23;14.60;99.90
25640;DHT22;13497;48.322;16.204;2023-04-24T15:16:48;14.50;99.90
25640;DHT22;13497;48.322;16.204;2023-04-24T15:19:14;14.30;99.90